Aérodrome :
LOGIN :

S'inscrire | Disclaimer

   EN    FR    IT 

 










Légende :    VFR   VFR Marginal   IFR   IFR Intensif   IFR Très Intensif
Visi : 
Plafond : 
>= 8 km
>= 3000ft
5 à 8 km
1000 à 3000 ft
1500m à 5 km
500 à 1000 ft
800 à 1500m
200 à 500 ft
< 800m
< 200 ft
Symboles :   Orages  Brouillard  Fortes neiges  Fortes précipitations  Vent > 20 kt
SIGMETs :   Divers  Orages  Givrage  Turbulence  Onde Orograph.  Cendres Volcan.






- Altitude de l'aérodrome : 1 ft


EGCK - Caernarfon

DERNIER METAR :
  • 260620Z AUTO 26006KT 9999 FEW014/// BKN034/// OVC044/// 09/07 Q1020

METARs EXPIRÉS :
  • 260550Z AUTO 26006KT 9999 BKN033/// OVC045/// 09/07 Q1020
  • 260520Z AUTO 24006KT 9999 OVC034/// 09/07 Q1020
  • 260450Z AUTO 26006KT 9999 FEW016/// OVC033/// 09/07 Q1020
  • 260420Z AUTO 27006KT 9999 FEW017/// OVC038/// 09/06 Q1020
  • 260350Z AUTO 27007KT 9999 OVC039/// 09/06 Q1020

TAF TAF EGCK
Valide du 26 à 06h jusqu'au 26 à 15h UTC


260500Z 2606/2615 27009KT 9999 FEW016 SCT030
PROB30
TEMPO 2610/2615 6000 SHRA BKN012



MET'MAP, la Météo Aéronautique d'un coup d'oeil ! - Copyright ORBIFLY Décembre 2007 - Disclaimer

ORBIFLY MET'MAP TEAM :

Programmation & Développement : Alexandra Zaïnal
Sur une idée originale de : Baudouin d'Aumeries
Assistance à la programmation : Marc-Olivier Méhu
Soutien technique & logistique : Manuel Goepfert

Contact : metmap@orbifly.com




SOURCES & CREDITS :

   NOAA